Time;durP1;ratioP1;P1;durP2;ratioP2;P2;SDS_P1;SDS_P2;PMS_P1;PMS_P2;Temp;Humidity;BMP_temperature;BMP_pressure;BME280_temperature;BME280_humidity;BME280_pressure;Samples;Min_cycle;Max_cycle;Signal;HPM_P1;HPM_P2
2023/05/07 00:01:19;;;;;;;3.73;1.77;;;14.50;99.90;;;;;;4922786;29;20240;-88
2023/05/07 00:03:50;;;;;;;2.57;1.60;;;14.40;99.90;;;;;;4937052;29;20652;-88
2023/05/07 00:06:23;;;;;;;2.93;1.60;;;14.20;99.90;;;;;;4943890;29;20263;-89
2023/05/07 00:08:54;;;;;;;2.60;1.80;;;14.10;99.90;;;;;;4937053;29;20241;-90
2023/05/07 00:11:25;;;;;;;3.43;1.60;;;14.10;99.90;;;;;;4941446;28;20219;-89
2023/05/07 00:13:56;;;;;;;3.73;1.77;;;14.10;99.90;;;;;;4919933;29;20213;-89
2023/05/07 00:16:27;;;;;;;6.23;2.30;;;14.10;99.90;;;;;;4937774;29;20592;-89
2023/05/07 00:18:58;;;;;;;4.47;2.10;;;14.10;99.90;;;;;;4931375;29;20208;-87
2023/05/07 00:21:31;;;;;;;3.60;1.97;;;14.10;99.90;;;;;;4956683;29;20215;-88
2023/05/07 00:24:02;;;;;;;3.23;1.47;;;14.20;99.90;;;;;;4957930;28;20674;-87
2023/05/07 00:26:33;;;;;;;2.40;1.20;;;14.10;99.90;;;;;;4936876;29;20589;-88
2023/05/07 00:29:04;;;;;;;2.17;1.07;;;14.00;99.90;;;;;;4937909;29;20240;-88
2023/05/07 00:31:36;;;;;;;1.57;1.03;;;13.90;99.90;;;;;;4938600;29;20667;-88
2023/05/07 00:34:07;;;;;;;1.33;0.87;;;13.90;99.90;;;;;;4938463;29;20212;-88
2023/05/07 00:36:40;;;;;;;2.27;0.80;;;13.70;99.90;;;;;;4919397;29;20213;-88
2023/05/07 00:39:12;;;;;;;1.63;1.00;;;13.60;99.90;;;;;;4918723;29;20273;-88
2023/05/07 00:41:43;;;;;;;1.33;1.03;;;13.70;99.90;;;;;;4936440;29;20283;-96
2023/05/07 00:50:52;;;;;;;1.03;0.80;;;14.20;99.90;;;;;;5537428;22;20258;-95
2023/05/07 00:53:24;;;;;;;2.20;1.00;;;14.60;99.90;;;;;;5071425;28;20184;-95
2023/05/07 00:55:56;;;;;;;1.20;0.80;;;14.80;99.90;;;;;;5059181;28;20319;-96
2023/05/07 00:58:28;;;;;;;2.57;1.10;;;15.00;99.90;;;;;;5055377;28;20653;-96
2023/05/07 01:00:59;;;;;;;1.53;1.13;;;15.10;99.90;;;;;;5063029;28;20189;-96
2023/05/07 01:03:35;;;;;;;1.93;0.90;;;15.30;99.90;;;;;;5057938;28;20248;-95
2023/05/07 01:15:12;;;;;;;2.30;1.13;;;14.60;99.90;;;;;;5807815;22;20260;-96
2023/05/07 01:17:44;;;;;;;1.77;0.90;;;14.70;99.90;;;;;;5030109;28;20227;-96
2023/05/07 01:23:01;;;;;;;1.30;0.87;;;14.80;99.90;;;;;;6023441;22;20240;-96
2023/05/07 01:49:35;;;;;;;2.67;1.50;;;14.50;99.90;;;;;;5032088;28;20222;-96
2023/05/07 01:52:08;;;;;;;1.60;1.23;;;14.40;99.90;;;;;;5030666;28;20213;-93
2023/05/07 01:54:39;;;;;;;1.77;1.27;;;14.40;99.90;;;;;;5017433;28;20937;-92
2023/05/07 01:57:10;;;;;;;2.50;1.30;;;14.30;99.90;;;;;;5017760;28;20209;-95
2023/05/07 01:59:43;;;;;;;2.40;1.57;;;14.30;99.90;;;;;;5409492;22;21008;-94
2023/05/07 02:02:14;;;;;;;2.53;1.67;;;14.30;99.90;;;;;;5360569;22;20245;-96
2023/05/07 02:10:06;;;;;;;2.03;1.23;;;14.30;99.90;;;;;;5222894;22;20252;-96
2023/05/07 02:12:39;;;;;;;2.57;1.37;;;14.40;99.90;;;;;;5014047;28;20204;-94
2023/05/07 02:15:15;;;;;;;1.90;1.53;;;14.30;99.90;;;;;;5012885;28;20197;-96
2023/05/07 02:18:01;;;;;;;1.73;1.30;;;14.20;99.90;;;;;;5051906;22;20245;-96
2023/05/07 02:23:18;;;;;;;2.37;1.53;;;14.10;99.90;;;;;;5440900;22;20233;-96
2023/05/07 02:25:50;;;;;;;2.20;1.27;;;14.10;99.90;;;;;;5047889;28;20234;-96
2023/05/07 02:28:35;;;;;;;3.83;1.53;;;14.10;99.90;;;;;;5042684;28;20205;-96
2023/05/07 02:31:09;;;;;;;4.43;1.60;;;13.90;99.90;;;;;;5024444;28;20368;-90
2023/05/07 02:33:55;;;;;;;2.07;1.30;;;14.00;99.90;;;;;;5033575;28;20232;-96
2023/05/07 02:36:26;;;;;;;3.73;1.83;;;13.90;99.90;;;;;;5047882;28;20235;-96
2023/05/07 02:41:29;;;;;;;2.70;1.50;;;13.90;99.90;;;;;;5001139;28;20225;-95
2023/05/07 02:44:00;;;;;;;1.93;1.50;;;13.90;99.90;;;;;;5001433;28;20300;-96
2023/05/07 02:46:33;;;;;;;2.90;1.40;;;13.70;99.90;;;;;;5006349;28;20198;-96
2023/05/07 02:49:04;;;;;;;3.17;1.50;;;13.60;99.90;;;;;;5010535;28;20210;-96
2023/05/07 02:51:35;;;;;;;2.40;1.50;;;13.70;99.90;;;;;;4998898;28;20206;-96
2023/05/07 02:54:07;;;;;;;1.97;1.40;;;13.60;99.90;;;;;;4984582;28;20218;-94
2023/05/07 02:56:39;;;;;;;2.47;1.10;;;13.60;99.90;;;;;;5011976;28;20178;-96
2023/05/07 02:59:10;;;;;;;2.00;1.80;;;13.50;99.90;;;;;;5016686;28;20203;-96
2023/05/07 03:01:44;;;;;;;4.60;1.80;;;13.50;99.90;;;;;;5007679;28;20206;-96
2023/05/07 03:04:16;;;;;;;3.23;1.70;;;13.40;99.90;;;;;;5008587;28;20244;-92
2023/05/07 03:06:47;;;;;;;1.87;1.60;;;13.40;99.90;;;;;;4999820;28;20237;-95
2023/05/07 03:09:19;;;;;;;2.00;1.30;;;13.30;99.90;;;;;;5014008;28;20187;-95
2023/05/07 03:14:33;;;;;;;4.27;1.60;;;13.10;99.90;;;;;;5211068;22;20285;-94
2023/05/07 03:17:07;;;;;;;2.77;1.70;;;13.10;99.90;;;;;;5029321;28;20198;-96
2023/05/07 03:19:38;;;;;;;2.80;1.70;;;13.10;99.90;;;;;;5031047;28;20542;-96
2023/05/07 03:22:09;;;;;;;1.70;1.50;;;13.00;99.90;;;;;;5032346;28;20209;-96
2023/05/07 03:24:41;;;;;;;4.60;2.57;;;12.90;99.90;;;;;;5034423;28;20236;-96
2023/05/07 03:27:13;;;;;;;5.37;2.23;;;12.90;99.90;;;;;;5022785;28;20205;-96
2023/05/07 03:29:44;;;;;;;2.23;1.80;;;12.80;99.90;;;;;;5033471;28;20304;-95
2023/05/07 03:32:18;;;;;;;3.13;2.17;;;12.80;99.90;;;;;;5024146;28;20216;-95
2023/05/07 03:34:49;;;;;;;1.97;1.73;;;12.70;99.90;;;;;;5035448;28;20266;-95
2023/05/07 03:37:21;;;;;;;2.57;1.97;;;12.80;99.90;;;;;;5031354;28;20210;-93
2023/05/07 03:39:53;;;;;;;4.47;1.60;;;12.70;99.90;;;;;;5022512;28;20217;-93
2023/05/07 03:42:24;;;;;;;2.30;2.00;;;12.70;99.90;;;;;;5033090;28;20216;-95
2023/05/07 03:44:56;;;;;;;1.87;1.67;;;12.80;99.90;;;;;;5024717;28;20267;-95
2023/05/07 03:47:30;;;;;;;2.27;2.07;;;12.70;99.90;;;;;;5032351;28;20217;-93
2023/05/07 03:50:02;;;;;;;3.20;2.00;;;12.60;99.90;;;;;;5045866;28;20215;-96
2023/05/07 03:52:35;;;;;;;2.63;1.90;;;12.60;99.90;;;;;;5035188;28;20272;-96
2023/05/07 03:55:07;;;;;;;4.23;2.33;;;12.60;99.90;;;;;;5031974;28;20212;-93
2023/05/07 03:57:38;;;;;;;2.10;1.90;;;12.50;99.90;;;;;;5032925;28;20215;-95
2023/05/07 04:00:11;;;;;;;3.00;1.93;;;12.50;99.90;;;;;;5031191;28;20271;-95
2023/05/07 04:02:45;;;;;;;3.03;1.67;;;12.50;99.90;;;;;;5024246;28;20216;-96
2023/05/07 04:05:17;;;;;;;2.70;1.60;;;12.50;99.90;;;;;;5021130;28;20701;-93
2023/05/07 04:07:48;;;;;;;1.80;1.70;;;12.40;99.90;;;;;;5026434;28;20216;-95
2023/05/07 04:10:20;;;;;;;2.60;1.83;;;12.40;99.90;;;;;;5016460;28;20213;-95
2023/05/07 04:12:51;;;;;;;2.03;1.80;;;12.40;99.90;;;;;;5027635;28;20224;-93
2023/05/07 04:15:23;;;;;;;3.57;1.73;;;12.40;99.90;;;;;;5035649;28;20201;-93
2023/05/07 04:17:57;;;;;;;2.27;2.07;;;12.40;99.90;;;;;;5032868;28;20213;-94
2023/05/07 04:20:29;;;;;;;3.30;2.10;;;12.40;99.90;;;;;;5034057;28;20613;-93
2023/05/07 04:23:00;;;;;;;2.17;1.93;;;12.30;99.90;;;;;;5034537;28;20634;-94
2023/05/07 04:25:31;;;;;;;2.30;1.90;;;12.30;99.90;;;;;;5034134;28;20236;-93
2023/05/07 04:28:03;;;;;;;2.97;2.20;;;12.30;99.90;;;;;;5025872;28;20216;-94
2023/05/07 04:30:34;;;;;;;2.37;2.13;;;12.30;99.90;;;;;;5014610;28;20260;-94
2023/05/07 04:33:08;;;;;;;2.17;1.90;;;12.30;99.90;;;;;;5014880;28;20216;-93
2023/05/07 04:35:40;;;;;;;3.13;2.07;;;12.30;99.90;;;;;;5013826;28;20232;-94
2023/05/07 04:38:11;;;;;;;2.77;2.37;;;12.30;99.90;;;;;;5033350;28;20204;-94
2023/05/07 04:40:43;;;;;;;2.43;2.17;;;12.30;99.90;;;;;;5034306;28;20255;-93
2023/05/07 04:43:15;;;;;;;3.33;1.80;;;12.20;99.90;;;;;;5034505;28;20300;-93
2023/05/07 04:45:47;;;;;;;4.07;2.10;;;12.20;99.90;;;;;;5024022;28;20283;-93
2023/05/07 04:48:21;;;;;;;3.83;2.30;;;12.10;99.90;;;;;;5029461;28;20209;-94
2023/05/07 04:50:52;;;;;;;2.50;2.00;;;12.10;99.90;;;;;;5027975;28;20209;-93
2023/05/07 04:53:24;;;;;;;5.07;1.73;;;12.10;99.90;;;;;;5028024;28;20243;-94
2023/05/07 04:55:58;;;;;;;1.77;1.40;;;12.10;99.90;;;;;;5031823;28;20205;-95
2023/05/07 04:58:31;;;;;;;2.40;2.20;;;12.10;99.90;;;;;;5029287;28;20209;-94
2023/05/07 05:01:03;;;;;;;2.53;1.73;;;12.10;99.90;;;;;;5032043;28;20724;-94
2023/05/07 05:03:36;;;;;;;3.17;2.00;;;12.00;99.90;;;;;;5048427;28;20197;-93
2023/05/07 05:06:08;;;;;;;3.40;1.90;;;12.00;99.90;;;;;;5054452;28;20232;-94
2023/05/07 05:08:41;;;;;;;4.47;1.93;;;11.90;99.90;;;;;;5041164;28;20200;-93
2023/05/07 05:11:12;;;;;;;4.27;2.00;;;11.90;99.90;;;;;;5030186;28;20217;-95
2023/05/07 05:13:44;;;;;;;5.67;1.83;;;11.90;99.90;;;;;;5025764;28;20209;-96
2023/05/07 05:16:16;;;;;;;2.10;1.90;;;11.90;99.90;;;;;;5028394;28;20257;-94
2023/05/07 05:18:51;;;;;;;2.20;2.00;;;11.80;99.90;;;;;;5031864;28;20227;-96
2023/05/07 05:21:22;;;;;;;2.03;1.80;;;11.80;99.90;;;;;;5028195;28;20213;-95
2023/05/07 05:23:54;;;;;;;2.10;1.70;;;11.70;99.90;;;;;;5028977;28;20208;-95
2023/05/07 05:26:26;;;;;;;2.67;1.60;;;11.70;99.90;;;;;;5031777;28;20219;-93
2023/05/07 05:29:00;;;;;;;2.10;1.77;;;11.60;99.90;;;;;;5026824;28;20252;-96
2023/05/07 05:31:33;;;;;;;1.90;1.70;;;11.50;99.90;;;;;;5021011;28;20214;-95
2023/05/07 05:34:07;;;;;;;3.90;2.10;;;11.40;99.90;;;;;;5026506;28;20196;-94
2023/05/07 05:36:39;;;;;;;4.37;1.70;;;11.30;99.90;;;;;;5037042;28;20201;-93
2023/05/07 05:39:10;;;;;;;4.47;2.00;;;11.20;99.90;;;;;;5034185;28;20646;-92
2023/05/07 05:41:43;;;;;;;4.17;2.10;;;11.20;99.90;;;;;;5034684;28;20205;-93
2023/05/07 05:44:14;;;;;;;3.00;1.90;;;11.10;99.90;;;;;;5033522;28;20209;-94
2023/05/07 05:46:46;;;;;;;3.43;2.20;;;11.00;99.90;;;;;;5034384;28;20209;-94
2023/05/07 05:49:21;;;;;;;2.87;2.30;;;10.80;99.90;;;;;;5035858;28;20684;-95
2023/05/07 05:51:52;;;;;;;3.93;2.80;;;10.80;99.90;;;;;;5033412;28;20220;-94
2023/05/07 05:54:25;;;;;;;2.80;2.60;;;10.70;99.90;;;;;;5027344;28;20217;-93
2023/05/07 05:56:56;;;;;;;3.20;2.90;;;10.60;99.90;;;;;;5031346;28;20212;-93
2023/05/07 05:59:28;;;;;;;5.07;2.83;;;10.60;99.90;;;;;;5030221;28;20209;-92
2023/05/07 06:02:00;;;;;;;4.30;2.83;;;10.60;99.90;;;;;;5035053;28;20319;-94
2023/05/07 06:04:34;;;;;;;3.27;2.67;;;10.50;99.90;;;;;;5035010;28;20319;-95
2023/05/07 06:07:05;;;;;;;2.80;2.60;;;10.50;99.90;;;;;;5036400;28;20225;-95
2023/05/07 06:09:37;;;;;;;3.90;2.30;;;10.40;99.90;;;;;;5031183;28;20213;-95
2023/05/07 06:12:09;;;;;;;3.17;2.80;;;10.40;99.90;;;;;;5031113;28;20216;-94
2023/05/07 06:14:40;;;;;;;3.37;3.07;;;10.30;99.90;;;;;;5036737;28;20258;-93
2023/05/07 06:17:15;;;;;;;4.20;2.87;;;10.30;99.90;;;;;;5038445;28;20209;-94
2023/05/07 06:19:53;;;;;;;3.73;2.93;;;10.20;99.90;;;;;;5036416;28;20216;-95
2023/05/07 06:22:24;;;;;;;3.10;2.80;;;10.20;99.90;;;;;;5037155;28;20208;-95
2023/05/07 06:24:55;;;;;;;3.17;2.70;;;10.20;99.90;;;;;;5036935;28;20235;-95
2023/05/07 06:27:27;;;;;;;4.03;2.80;;;10.20;99.90;;;;;;5038008;28;20205;-94
2023/05/07 06:30:00;;;;;;;3.70;2.60;;;10.10;99.90;;;;;;5040194;28;20275;-95
2023/05/07 06:32:31;;;;;;;3.30;2.33;;;10.10;99.90;;;;;;5030765;28;20251;-94
2023/05/07 06:35:05;;;;;;;3.50;2.87;;;10.10;99.90;;;;;;5018215;28;20876;-94
2023/05/07 06:37:38;;;;;;;4.67;3.10;;;10.00;99.90;;;;;;5016986;28;20210;-95
2023/05/07 06:40:10;;;;;;;5.37;3.10;;;9.90;99.90;;;;;;5016610;28;20201;-94
2023/05/07 06:42:43;;;;;;;3.70;3.17;;;9.90;99.90;;;;;;5017130;28;20209;-93
2023/05/07 06:45:15;;;;;;;4.03;3.60;;;10.00;99.90;;;;;;5016805;28;20303;-93
2023/05/07 06:47:46;;;;;;;6.77;3.40;;;10.10;99.90;;;;;;5015983;28;20701;-94
2023/05/07 06:50:20;;;;;;;4.03;2.90;;;10.10;99.90;;;;;;5032898;28;20212;-94
2023/05/07 06:52:52;;;;;;;3.13;2.83;;;10.20;99.90;;;;;;5015668;28;20202;-92
2023/05/07 06:55:24;;;;;;;6.27;3.43;;;10.20;99.90;;;;;;5016281;28;20267;-93
2023/05/07 06:57:55;;;;;;;4.60;3.53;;;10.10;99.90;;;;;;5022047;28;20574;-93
2023/05/07 07:00:26;;;;;;;4.80;3.43;;;10.20;99.90;;;;;;5029339;28;20214;-93
2023/05/07 07:02:59;;;;;;;4.40;3.50;;;10.30;99.90;;;;;;5031230;28;20283;-94
2023/05/07 07:05:32;;;;;;;4.20;3.50;;;10.30;99.90;;;;;;5031772;28;20660;-93
2023/05/07 07:08:03;;;;;;;4.33;3.93;;;10.30;99.90;;;;;;5035936;28;20253;-93
2023/05/07 07:10:36;;;;;;;5.30;3.73;;;10.30;99.90;;;;;;5049095;28;20205;-94
2023/05/07 07:13:07;;;;;;;6.80;4.97;;;10.30;99.90;;;;;;5058448;28;20204;-94
2023/05/07 07:15:39;;;;;;;6.47;4.70;;;10.20;99.90;;;;;;5055289;28;20201;-93
2023/05/07 07:18:11;;;;;;;5.60;4.43;;;10.20;99.90;;;;;;5038002;28;20236;-94
2023/05/07 07:20:45;;;;;;;7.53;4.87;;;10.10;99.90;;;;;;5036567;28;20217;-88
2023/05/07 15:16:57;;;;;;;1.60;0.57;;;10.80;99.90;;;;;;4910740;29;20248;-93
2023/05/07 15:19:29;;;;;;;1.27;0.90;;;10.90;99.90;;;;;;4915842;29;20292;-95
2023/05/07 15:22:03;;;;;;;1.47;0.60;;;11.10;99.90;;;;;;4919816;29;20216;-94
2023/05/07 15:24:35;;;;;;;1.23;0.80;;;11.10;99.90;;;;;;4915401;29;20205;-93
2023/05/07 15:27:07;;;;;;;2.23;0.67;;;10.90;99.90;;;;;;4919285;29;20256;-94
2023/05/07 15:29:38;;;;;;;2.30;0.97;;;10.80;99.90;;;;;;4913841;29;20209;-94
2023/05/07 15:32:13;;;;;;;1.33;0.70;;;10.90;99.90;;;;;;4918261;29;20201;-93
2023/05/07 15:34:44;;;;;;;2.43;0.50;;;11.10;99.90;;;;;;4912384;29;20212;-95
2023/05/07 15:37:16;;;;;;;0.43;0.43;;;10.90;99.90;;;;;;4919200;29;20220;-93
2023/05/07 15:39:47;;;;;;;1.20;0.50;;;11.00;99.90;;;;;;4928370;29;20264;-93
2023/05/07 15:42:19;;;;;;;0.90;0.50;;;11.20;99.90;;;;;;4937591;29;20220;-95
2023/05/07 15:44:50;;;;;;;1.33;0.40;;;11.30;99.90;;;;;;4932685;29;20264;-93
2023/05/07 17:00:13;;;;;;;2.30;1.10;;;12.30;99.90;;;;;;4976277;23;20242;-96
2023/05/07 17:02:47;;;;;;;2.20;0.40;;;12.40;99.90;;;;;;5030386;23;20281;-96
2023/05/07 17:05:21;;;;;;;2.10;0.40;;;12.40;99.90;;;;;;4940127;29;20228;-95
2023/05/07 17:10:31;;;;;;;1.97;1.77;;;12.80;99.90;;;;;;5150816;23;20704;-96
2023/05/07 17:18:21;;;;;;;1.30;0.40;;;13.10;99.90;;;;;;4939733;23;20308;-96
2023/05/07 17:23:24;;;;;;;0.83;0.43;;;12.60;99.90;;;;;;4931645;29;20260;-96
2023/05/07 17:31:17;;;;;;;0.47;0.30;;;12.80;99.90;;;;;;4973685;23;20254;-95
2023/05/07 17:33:50;;;;;;;1.13;0.57;;;12.90;99.90;;;;;;5388160;23;20231;-96
2023/05/07 17:39:31;;;;;;;0.60;0.33;;;12.90;99.90;;;;;;4939676;29;20278;-91
2023/05/07 17:42:03;;;;;;;1.07;0.63;;;12.80;99.90;;;;;;4939759;29;20217;-92
2023/05/07 17:44:35;;;;;;;1.63;0.67;;;12.90;99.90;;;;;;4940914;29;20214;-91
2023/05/07 17:47:11;;;;;;;6.63;2.10;;;13.10;99.90;;;;;;4956345;29;20287;-90
2023/05/07 17:49:42;;;;;;;1.23;0.60;;;13.30;99.90;;;;;;4953729;29;20204;-92
2023/05/07 17:52:13;;;;;;;0.77;0.40;;;13.30;99.90;;;;;;4940277;29;20246;-91
2023/05/07 17:54:47;;;;;;;1.37;0.50;;;13.10;99.90;;;;;;4940967;29;20224;-91
2023/05/07 17:57:19;;;;;;;0.60;0.57;;;13.20;99.90;;;;;;4937034;29;20244;-90
2023/05/07 17:59:51;;;;;;;0.90;0.70;;;13.30;99.90;;;;;;4936427;29;20299;-92
2023/05/07 18:02:25;;;;;;;2.37;0.43;;;13.50;99.90;;;;;;4942486;29;20208;-91
2023/05/07 18:04:56;;;;;;;0.37;0.37;;;13.10;99.90;;;;;;4944182;29;20271;-93
2023/05/07 18:07:28;;;;;;;0.43;0.30;;;13.20;99.90;;;;;;4930859;29;20268;-94
2023/05/07 18:09:59;;;;;;;1.40;0.40;;;13.20;99.90;;;;;;4942004;29;20267;-95
2023/05/07 18:12:31;;;;;;;0.40;0.40;;;13.30;99.90;;;;;;4941307;29;20208;-94
2023/05/07 18:15:04;;;;;;;1.30;0.40;;;13.30;99.90;;;;;;4947708;29;20220;-95
2023/05/07 18:17:37;;;;;;;0.33;0.30;;;13.00;99.90;;;;;;4949080;29;20239;-96
2023/05/07 18:20:10;;;;;;;0.97;0.60;;;13.10;99.90;;;;;;4934135;29;20221;-93
2023/05/07 18:22:42;;;;;;;0.43;0.40;;;13.00;99.90;;;;;;4944292;29;20700;-94
2023/05/07 18:25:14;;;;;;;0.97;0.50;;;13.00;99.90;;;;;;4946072;29;20695;-93
2023/05/07 18:27:45;;;;;;;1.80;0.40;;;13.00;99.90;;;;;;4945501;29;20232;-94
2023/05/07 18:30:17;;;;;;;1.53;0.50;;;13.20;99.90;;;;;;4944198;29;20212;-93
2023/05/07 18:32:50;;;;;;;0.30;0.30;;;13.00;99.90;;;;;;4944289;29;20847;-93
2023/05/07 18:35:21;;;;;;;0.40;0.37;;;13.00;99.90;;;;;;4946168;29;20275;-94
2023/05/07 18:37:53;;;;;;;1.23;0.40;;;13.10;99.90;;;;;;4941384;29;20208;-92
2023/05/07 18:40:24;;;;;;;1.80;0.50;;;13.40;99.90;;;;;;4940418;29;20208;-92
2023/05/07 18:42:55;;;;;;;0.57;0.50;;;13.50;99.90;;;;;;4602238;28;10000270;-93
2023/05/07 18:45:26;;;;;;;0.50;0.37;;;13.70;99.90;;;;;;4944211;29;20276;-92
2023/05/07 18:48:00;;;;;;;1.43;0.50;;;13.80;99.90;;;;;;4941813;29;20235;-93
2023/05/07 18:50:31;;;;;;;1.13;0.50;;;14.00;99.90;;;;;;4939698;29;20276;-92
2023/05/07 18:53:03;;;;;;;0.47;0.47;;;14.10;99.90;;;;;;4931143;29;20235;-92
2023/05/07 18:55:34;;;;;;;0.47;0.47;;;14.30;99.90;;;;;;4948274;29;20294;-94
2023/05/07 18:58:05;;;;;;;1.50;0.53;;;14.40;99.90;;;;;;4942556;28;20312;-93
2023/05/07 19:00:36;;;;;;;1.13;0.40;;;14.50;99.90;;;;;;4942690;29;20228;-94
2023/05/07 19:03:10;;;;;;;1.30;0.50;;;14.60;99.90;;;;;;4941253;29;20303;-93
2023/05/07 19:05:42;;;;;;;1.07;0.57;;;14.40;99.90;;;;;;4944185;29;20263;-92
2023/05/07 19:08:14;;;;;;;0.83;0.53;;;14.30;99.90;;;;;;4930050;29;20847;-94
2023/05/07 19:10:45;;;;;;;1.63;0.43;;;14.40;99.90;;;;;;4925676;29;20213;-95
2023/05/07 19:13:19;;;;;;;1.47;0.70;;;14.50;99.90;;;;;;4929512;29;20220;-96
2023/05/07 19:15:50;;;;;;;2.60;0.63;;;14.50;99.90;;;;;;4927389;29;20284;-94
2023/05/07 19:18:24;;;;;;;1.30;0.50;;;14.70;99.90;;;;;;4943161;29;20209;-94
2023/05/07 19:20:55;;;;;;;1.63;0.50;;;14.80;99.90;;;;;;4945601;29;20212;-95
2023/05/07 19:23:27;;;;;;;1.13;0.70;;;14.80;99.90;;;;;;4941632;29;20204;-93
2023/05/07 19:25:59;;;;;;;0.63;0.60;;;14.60;99.90;;;;;;4939724;29;20215;-94
2023/05/07 19:28:30;;;;;;;1.40;0.50;;;14.50;99.90;;;;;;4940089;29;20252;-95
2023/05/07 19:31:01;;;;;;;0.53;0.40;;;14.50;99.90;;;;;;4940094;29;20300;-92
2023/05/07 19:33:35;;;;;;;0.80;0.50;;;14.70;99.90;;;;;;4939597;29;20239;-95
2023/05/07 19:36:07;;;;;;;1.37;0.53;;;15.00;99.90;;;;;;4939164;29;20212;-93
2023/05/07 19:38:38;;;;;;;1.60;0.40;;;15.50;99.90;;;;;;4938735;29;20684;-95
2023/05/07 19:41:10;;;;;;;0.97;0.53;;;15.50;99.90;;;;;;4938990;29;20280;-96
2023/05/07 19:43:42;;;;;;;0.63;0.50;;;15.60;99.90;;;;;;4940341;29;20215;-93
2023/05/07 19:46:15;;;;;;;1.03;0.40;;;15.40;99.90;;;;;;4940099;29;20246;-93
2023/05/07 19:48:48;;;;;;;1.70;0.50;;;15.60;99.90;;;;;;4939854;29;20630;-92
2023/05/07 19:51:19;;;;;;;0.40;0.40;;;15.70;99.90;;;;;;4942949;29;20310;-93
2023/05/07 19:53:50;;;;;;;2.20;0.53;;;15.60;99.90;;;;;;4959557;29;20232;-92
2023/05/07 19:56:23;;;;;;;0.57;0.40;;;15.70;99.90;;;;;;4960271;29;20232;-93
2023/05/07 19:58:54;;;;;;;2.57;0.43;;;15.50;99.90;;;;;;4945285;29;20299;-94
2023/05/07 20:01:27;;;;;;;0.93;0.60;;;15.20;99.90;;;;;;4940429;29;20208;-94
2023/05/07 20:04:00;;;;;;;0.50;0.43;;;15.30;99.90;;;;;;4940194;29;20208;-94
2023/05/07 20:06:31;;;;;;;0.50;0.30;;;15.40;99.90;;;;;;4939202;29;20235;-93
2023/05/07 20:09:02;;;;;;;0.40;0.40;;;15.60;99.90;;;;;;4937439;29;20286;-93
2023/05/07 20:11:34;;;;;;;0.57;0.30;;;16.00;99.90;;;;;;4940132;29;20272;-94
2023/05/07 20:14:05;;;;;;;0.40;0.30;;;16.10;99.90;;;;;;4942140;29;20212;-95
2023/05/07 20:16:36;;;;;;;0.50;0.50;;;16.10;99.90;;;;;;4940002;29;20252;-94
2023/05/07 20:19:09;;;;;;;1.20;0.50;;;15.90;99.90;;;;;;4940960;29;20213;-95
2023/05/07 20:21:41;;;;;;;0.43;0.40;;;15.80;99.90;;;;;;4941348;29;20248;-95
2023/05/07 20:24:12;;;;;;;0.57;0.40;;;15.60;99.90;;;;;;4939422;29;20204;-95
2023/05/07 20:26:43;;;;;;;0.50;0.50;;;15.70;99.90;;;;;;4938541;29;20208;-94
2023/05/07 20:29:15;;;;;;;1.07;0.60;;;15.60;99.90;;;;;;4937500;29;20244;-94
2023/05/07 20:31:46;;;;;;;0.70;0.40;;;15.70;99.90;;;;;;4938537;29;20220;-95
2023/05/07 20:34:19;;;;;;;0.77;0.50;;;15.50;99.90;;;;;;4938886;29;20263;-95
2023/05/07 20:36:51;;;;;;;1.07;0.47;;;15.50;99.90;;;;;;4939317;29;20272;-96
2023/05/07 20:39:22;;;;;;;1.17;0.53;;;15.50;99.90;;;;;;4942748;29;20240;-95
2023/05/07 20:41:53;;;;;;;1.30;0.50;;;15.50;99.90;;;;;;4940244;29;20213;-95
2023/05/07 20:44:25;;;;;;;0.73;0.40;;;15.50;99.90;;;;;;4942211;29;20219;-95
2023/05/07 20:46:56;;;;;;;0.93;0.50;;;15.80;99.90;;;;;;4943222;29;20241;-95
2023/05/07 20:49:29;;;;;;;0.40;0.40;;;15.60;99.90;;;;;;4941484;29;20235;-93
2023/05/07 20:52:00;;;;;;;0.47;0.47;;;15.60;99.90;;;;;;4939799;29;20207;-94
2023/05/07 20:54:31;;;;;;;0.73;0.40;;;15.70;99.90;;;;;;4938100;29;20636;-94
2023/05/07 20:57:03;;;;;;;0.63;0.50;;;15.80;99.90;;;;;;4940892;29;20662;-93
2023/05/07 20:59:34;;;;;;;0.60;0.50;;;15.90;99.90;;;;;;4940762;29;20204;-92
2023/05/07 21:02:06;;;;;;;0.63;0.40;;;16.10;99.90;;;;;;4945412;29;20298;-94
2023/05/07 21:04:39;;;;;;;0.93;0.60;;;16.40;99.90;;;;;;4948435;29;20235;-94
2023/05/07 21:07:11;;;;;;;1.27;0.60;;;16.40;99.90;;;;;;4943164;29;20251;-94
2023/05/07 21:09:42;;;;;;;0.73;0.60;;;16.40;99.90;;;;;;4942273;29;20326;-93
2023/05/07 21:12:13;;;;;;;0.67;0.50;;;16.20;99.90;;;;;;4943021;29;20212;-93
2023/05/07 21:14:44;;;;;;;0.97;0.40;;;16.10;99.90;;;;;;4944139;29;20248;-93
2023/05/07 21:17:15;;;;;;;2.40;0.40;;;16.10;99.90;;;;;;4942796;29;20212;-92
2023/05/07 21:19:48;;;;;;;1.30;0.40;;;16.00;99.90;;;;;;4941163;29;20216;-93
2023/05/07 21:22:19;;;;;;;2.57;0.60;;;16.00;99.90;;;;;;4937290;29;20654;-95
2023/05/07 21:24:51;;;;;;;0.67;0.50;;;16.20;99.90;;;;;;4945468;29;20205;-95
2023/05/07 21:27:22;;;;;;;0.60;0.50;;;16.30;99.90;;;;;;4946919;29;20214;-95
2023/05/07 21:29:57;;;;;;;1.07;0.47;;;16.10;99.90;;;;;;4947608;29;20232;-95
2023/05/07 21:32:28;;;;;;;1.80;0.70;;;15.90;99.90;;;;;;4945979;29;20215;-96
2023/05/07 21:35:02;;;;;;;1.40;0.50;;;16.10;99.90;;;;;;4947278;29;20220;-95
2023/05/07 21:37:34;;;;;;;2.33;0.50;;;15.70;99.90;;;;;;4944162;29;20240;-96
2023/05/07 21:40:05;;;;;;;1.50;0.40;;;15.90;99.90;;;;;;4945269;29;20227;-94
2023/05/07 21:42:36;;;;;;;3.53;0.50;;;16.10;99.90;;;;;;4943750;29;20208;-95
2023/05/07 21:45:09;;;;;;;1.00;0.50;;;16.20;99.90;;;;;;4944110;29;20215;-95
2023/05/07 21:47:40;;;;;;;0.90;0.50;;;16.50;99.90;;;;;;4945298;29;20211;-95
2023/05/07 21:50:14;;;;;;;1.83;0.60;;;17.00;99.90;;;;;;4943802;29;20283;-95
2023/05/07 21:52:46;;;;;;;1.50;0.50;;;17.40;99.90;;;;;;4941930;29;20224;-93
2023/05/07 21:55:19;;;;;;;1.93;0.60;;;17.90;99.90;;;;;;4944518;29;20223;-93
2023/05/07 21:57:50;;;;;;;0.87;0.50;;;18.10;99.90;;;;;;4945107;29;20553;-93
2023/05/07 22:00:34;;;;;;;2.00;0.60;;;18.00;99.90;;;;;;4960830;29;20208;-92
2023/05/07 22:03:05;;;;;;;1.43;0.40;;;18.30;99.90;;;;;;4962367;29;20221;-94
2023/05/07 22:05:38;;;;;;;0.73;0.43;;;17.90;99.90;;;;;;4958852;29;20276;-92
2023/05/07 22:08:10;;;;;;;1.10;0.50;;;17.70;99.90;;;;;;4951267;29;20209;-93
2023/05/07 22:10:41;;;;;;;2.60;0.70;;;17.70;99.90;;;;;;4949716;29;20244;-93
2023/05/07 22:13:13;;;;;;;3.30;0.70;;;18.10;99.90;;;;;;4945072;29;20227;-93
2023/05/07 22:15:44;;;;;;;0.60;0.60;;;17.90;99.90;;;;;;4945021;29;20217;-92
2023/05/07 22:18:26;;;;;;;1.33;0.43;;;17.80;99.90;;;;;;4945717;29;20211;-94
2023/05/07 22:21:00;;;;;;;1.60;0.50;;;17.70;99.90;;;;;;4944512;29;20204;-94
2023/05/07 22:23:31;;;;;;;1.13;0.50;;;17.90;99.90;;;;;;4945729;29;20211;-96
2023/05/07 22:26:02;;;;;;;1.20;0.60;;;18.30;99.90;;;;;;4946049;29;20212;-96
2023/05/07 22:28:33;;;;;;;1.70;0.73;;;18.80;99.90;;;;;;4944411;29;20664;-96
2023/05/07 22:31:04;;;;;;;0.43;0.40;;;18.70;99.90;;;;;;4945143;28;20222;-96
2023/05/07 22:33:36;;;;;;;0.97;0.50;;;18.60;99.90;;;;;;4945814;29;20216;-94
2023/05/07 22:36:10;;;;;;;1.13;0.40;;;18.50;99.90;;;;;;4941149;29;20208;-96
2023/05/07 22:38:41;;;;;;;0.90;0.30;;;18.50;99.90;;;;;;4940736;29;20295;-95
2023/05/07 22:41:13;;;;;;;0.93;0.57;;;19.00;99.90;;;;;;4948841;29;20247;-96
2023/05/07 22:43:44;;;;;;;1.07;0.43;;;18.90;99.90;;;;;;4948629;29;20216;-96
2023/05/07 22:46:16;;;;;;;1.00;0.60;;;19.10;99.90;;;;;;4947880;29;20208;-95
2023/05/07 22:48:47;;;;;;;1.90;0.50;;;19.50;99.90;;;;;;4947096;29;20208;-96
2023/05/07 22:51:20;;;;;;;0.87;0.50;;;19.70;99.90;;;;;;4946375;29;20268;-96
2023/05/07 22:53:51;;;;;;;0.87;0.40;;;19.70;99.90;;;;;;4946107;29;20691;-95
2023/05/07 22:56:23;;;;;;;1.83;0.40;;;19.50;99.90;;;;;;4947736;29;20208;-96
2023/05/07 22:58:54;;;;;;;0.60;0.40;;;19.10;99.90;;;;;;4943771;29;20216;-95
2023/05/07 23:01:25;;;;;;;1.13;0.50;;;19.00;99.90;;;;;;4944322;29;20204;-94
2023/05/07 23:03:57;;;;;;;0.70;0.40;;;19.20;99.90;;;;;;4943722;29;20224;-94
2023/05/07 23:06:30;;;;;;;0.60;0.40;;;19.40;99.90;;;;;;4942285;28;20208;-94
2023/05/07 23:09:03;;;;;;;1.13;0.40;;;19.30;99.90;;;;;;4942081;29;20645;-94
2023/05/07 23:11:35;;;;;;;1.37;0.37;;;19.20;99.90;;;;;;4948039;29;20213;-94
2023/05/07 23:14:06;;;;;;;0.30;0.30;;;18.80;99.90;;;;;;4943582;29;20209;-94
2023/05/07 23:16:38;;;;;;;0.30;0.30;;;18.70;99.90;;;;;;4931118;29;20307;-94
2023/05/07 23:19:10;;;;;;;1.27;0.40;;;18.30;99.90;;;;;;4940586;29;20232;-93
2023/05/07 23:21:44;;;;;;;0.63;0.33;;;17.80;99.90;;;;;;4948146;29;20216;-93
2023/05/07 23:24:16;;;;;;;1.80;0.50;;;17.40;99.90;;;;;;4946109;29;20208;-94
2023/05/07 23:26:48;;;;;;;0.67;0.37;;;17.60;99.90;;;;;;4928144;29;20213;-94
2023/05/07 23:29:19;;;;;;;0.80;0.60;;;17.60;99.90;;;;;;4937501;29;20227;-88
2023/05/07 23:31:51;;;;;;;0.40;0.40;;;17.40;99.90;;;;;;4928952;29;20240;-89
2023/05/07 23:34:23;;;;;;;0.50;0.30;;;17.50;99.90;;;;;;4938118;29;20224;-87